sensor_id;sensor_type;location;lat;lon;timestamp;P1;durP1;ratioP1;P2;durP2;ratioP2
48092;SDS011;33873;47.442;18.902;2022-10-30T00:01:19;32.78;;;16.80;;
48092;SDS011;33873;47.442;18.902;2022-10-30T00:03:47;24.95;;;11.25;;
48092;SDS011;33873;47.442;18.902;2022-10-30T00:06:14;28.42;;;11.43;;
48092;SDS011;33873;47.442;18.902;2022-10-30T00:08:47;21.73;;;9.23;;
48092;SDS011;33873;47.442;18.902;2022-10-30T00:11:14;23.67;;;14.00;;
48092;SDS011;33873;47.442;18.902;2022-10-30T00:13:42;20.30;;;11.75;;
48092;SDS011;33873;47.442;18.902;2022-10-30T00:16:11;34.75;;;14.48;;
48092;SDS011;33873;47.442;18.902;2022-10-30T00:18:38;22.42;;;12.82;;
48092;SDS011;33873;47.442;18.902;2022-10-30T00:21:09;14.70;;;9.65;;
48092;SDS011;33873;47.442;18.902;2022-10-30T00:23:47;19.00;;;11.60;;
48092;SDS011;33873;47.442;18.902;2022-10-30T00:26:16;23.35;;;12.65;;
48092;SDS011;33873;47.442;18.902;2022-10-30T00:28:52;30.48;;;16.12;;
48092;SDS011;33873;47.442;18.902;2022-10-30T00:31:20;18.40;;;12.15;;
48092;SDS011;33873;47.442;18.902;2022-10-30T00:33:52;26.98;;;12.93;;
48092;SDS011;33873;47.442;18.902;2022-10-30T00:36:22;23.20;;;14.02;;
48092;SDS011;33873;47.442;18.902;2022-10-30T00:38:50;21.95;;;13.02;;
48092;SDS011;33873;47.442;18.902;2022-10-30T00:41:20;19.83;;;11.65;;
48092;SDS011;33873;47.442;18.902;2022-10-30T00:43:49;17.23;;;10.63;;
48092;SDS011;33873;47.442;18.902;2022-10-30T00:46:34;32.00;;;15.32;;
48092;SDS011;33873;47.442;18.902;2022-10-30T00:49:11;25.90;;;11.80;;
48092;SDS011;33873;47.442;18.902;2022-10-30T00:51:41;24.17;;;12.15;;
48092;SDS011;33873;47.442;18.902;2022-10-30T00:54:11;21.40;;;12.52;;
48092;SDS011;33873;47.442;18.902;2022-10-30T00:56:40;25.92;;;13.45;;
48092;SDS011;33873;47.442;18.902;2022-10-30T00:59:09;22.10;;;12.63;;
48092;SDS011;33873;47.442;18.902;2022-10-30T01:01:41;28.40;;;11.27;;
48092;SDS011;33873;47.442;18.902;2022-10-30T01:04:11;21.60;;;12.88;;
48092;SDS011;33873;47.442;18.902;2022-10-30T01:06:40;21.77;;;9.23;;
48092;SDS011;33873;47.442;18.902;2022-10-30T01:09:09;22.90;;;13.43;;
48092;SDS011;33873;47.442;18.902;2022-10-30T01:11:37;17.17;;;10.50;;
48092;SDS011;33873;47.442;18.902;2022-10-30T01:14:04;14.57;;;8.05;;
48092;SDS011;33873;47.442;18.902;2022-10-30T01:19:02;21.42;;;11.73;;
48092;SDS011;33873;47.442;18.902;2022-10-30T01:21:53;19.80;;;10.80;;
48092;SDS011;33873;47.442;18.902;2022-10-30T01:24:54;17.62;;;10.98;;
48092;SDS011;33873;47.442;18.902;2022-10-30T01:27:31;22.85;;;14.35;;
48092;SDS011;33873;47.442;18.902;2022-10-30T01:30:08;24.33;;;10.20;;
48092;SDS011;33873;47.442;18.902;2022-10-30T01:37:55;21.50;;;11.88;;
48092;SDS011;33873;47.442;18.902;2022-10-30T01:40:25;19.90;;;11.63;;
48092;SDS011;33873;47.442;18.902;2022-10-30T01:42:54;16.67;;;10.50;;
48092;SDS011;33873;47.442;18.902;2022-10-30T01:48:17;20.58;;;11.68;;
48092;SDS011;33873;47.442;18.902;2022-10-30T01:58:51;23.42;;;12.15;;
48092;SDS011;33873;47.442;18.902;2022-10-30T02:01:30;18.55;;;10.48;;
48092;SDS011;33873;47.442;18.902;2022-10-30T02:04:00;18.27;;;8.15;;
48092;SDS011;33873;47.442;18.902;2022-10-30T02:06:34;13.57;;;8.70;;
48092;SDS011;33873;47.442;18.902;2022-10-30T02:09:03;15.50;;;8.45;;
48092;SDS011;33873;47.442;18.902;2022-10-30T02:11:31;10.75;;;7.53;;
48092;SDS011;33873;47.442;18.902;2022-10-30T02:14:01;16.65;;;11.18;;
48092;SDS011;33873;47.442;18.902;2022-10-30T02:16:32;15.50;;;8.57;;
48092;SDS011;33873;47.442;18.902;2022-10-30T02:19:02;21.65;;;13.15;;
48092;SDS011;33873;47.442;18.902;2022-10-30T02:21:29;19.25;;;8.70;;
48092;SDS011;33873;47.442;18.902;2022-10-30T02:23:57;14.90;;;9.10;;
48092;SDS011;33873;47.442;18.902;2022-10-30T02:26:25;18.62;;;8.85;;
48092;SDS011;33873;47.442;18.902;2022-10-30T02:28:52;15.63;;;9.43;;
48092;SDS011;33873;47.442;18.902;2022-10-30T02:31:20;19.42;;;10.15;;
48092;SDS011;33873;47.442;18.902;2022-10-30T02:33:48;11.70;;;6.68;;
48092;SDS011;33873;47.442;18.902;2022-10-30T02:36:15;15.95;;;7.90;;
48092;SDS011;33873;47.442;18.902;2022-10-30T02:38:43;9.43;;;6.05;;
48092;SDS011;33873;47.442;18.902;2022-10-30T02:41:11;18.33;;;9.45;;
48092;SDS011;33873;47.442;18.902;2022-10-30T02:43:39;14.30;;;7.80;;
48092;SDS011;33873;47.442;18.902;2022-10-30T02:46:07;21.33;;;9.43;;
48092;SDS011;33873;47.442;18.902;2022-10-30T02:48:35;19.40;;;11.07;;
48092;SDS011;33873;47.442;18.902;2022-10-30T02:51:03;15.25;;;9.02;;
48092;SDS011;33873;47.442;18.902;2022-10-30T02:53:32;11.82;;;7.97;;
48092;SDS011;33873;47.442;18.902;2022-10-30T02:56:07;14.57;;;9.00;;
48092;SDS011;33873;47.442;18.902;2022-10-30T03:01:04;15.00;;;8.30;;
48092;SDS011;33873;47.442;18.902;2022-10-30T03:03:32;9.00;;;5.55;;
48092;SDS011;33873;47.442;18.902;2022-10-30T03:06:01;14.18;;;7.68;;
48092;SDS011;33873;47.442;18.902;2022-10-30T03:08:29;13.77;;;6.82;;
48092;SDS011;33873;47.442;18.902;2022-10-30T03:10:58;10.80;;;6.37;;
48092;SDS011;33873;47.442;18.902;2022-10-30T03:13:30;19.83;;;9.15;;
48092;SDS011;33873;47.442;18.902;2022-10-30T03:16:02;17.48;;;9.95;;
48092;SDS011;33873;47.442;18.902;2022-10-30T03:18:32;21.12;;;10.07;;
48092;SDS011;33873;47.442;18.902;2022-10-30T03:21:02;17.50;;;11.63;;
48092;SDS011;33873;47.442;18.902;2022-10-30T03:23:31;25.08;;;10.88;;
48092;SDS011;33873;47.442;18.902;2022-10-30T03:26:00;20.92;;;12.27;;
48092;SDS011;33873;47.442;18.902;2022-10-30T03:28:29;15.50;;;8.80;;
48092;SDS011;33873;47.442;18.902;2022-10-30T03:30:58;16.52;;;10.27;;
48092;SDS011;33873;47.442;18.902;2022-10-30T03:33:27;17.50;;;10.00;;
48092;SDS011;33873;47.442;18.902;2022-10-30T03:35:55;15.88;;;9.05;;
48092;SDS011;33873;47.442;18.902;2022-10-30T03:38:24;14.60;;;9.82;;
48092;SDS011;33873;47.442;18.902;2022-10-30T03:40:52;11.38;;;7.20;;
48092;SDS011;33873;47.442;18.902;2022-10-30T03:43:19;13.40;;;8.30;;
48092;SDS011;33873;47.442;18.902;2022-10-30T03:45:49;29.75;;;11.60;;
48092;SDS011;33873;47.442;18.902;2022-10-30T03:48:18;11.07;;;8.75;;
48092;SDS011;33873;47.442;18.902;2022-10-30T03:50:47;11.30;;;6.20;;
48092;SDS011;33873;47.442;18.902;2022-10-30T03:53:15;18.50;;;6.20;;
48092;SDS011;33873;47.442;18.902;2022-10-30T03:55:42;14.90;;;7.12;;
48092;SDS011;33873;47.442;18.902;2022-10-30T03:58:11;9.82;;;7.20;;
48092;SDS011;33873;47.442;18.902;2022-10-30T04:00:39;11.18;;;7.62;;
48092;SDS011;33873;47.442;18.902;2022-10-30T04:03:08;12.02;;;6.97;;
48092;SDS011;33873;47.442;18.902;2022-10-30T04:05:36;11.80;;;8.35;;
48092;SDS011;33873;47.442;18.902;2022-10-30T04:08:05;15.40;;;7.97;;
48092;SDS011;33873;47.442;18.902;2022-10-30T04:10:34;15.82;;;9.43;;
48092;SDS011;33873;47.442;18.902;2022-10-30T04:13:03;12.68;;;5.85;;
48092;SDS011;33873;47.442;18.902;2022-10-30T04:15:32;11.25;;;7.45;;
48092;SDS011;33873;47.442;18.902;2022-10-30T04:18:00;13.15;;;7.68;;
48092;SDS011;33873;47.442;18.902;2022-10-30T04:20:29;7.62;;;5.97;;
48092;SDS011;33873;47.442;18.902;2022-10-30T04:22:57;11.65;;;5.95;;
48092;SDS011;33873;47.442;18.902;2022-10-30T04:25:26;5.72;;;3.92;;
48092;SDS011;33873;47.442;18.902;2022-10-30T04:27:55;9.48;;;4.97;;
48092;SDS011;33873;47.442;18.902;2022-10-30T04:30:23;10.13;;;6.70;;
48092;SDS011;33873;47.442;18.902;2022-10-30T04:32:54;7.10;;;5.75;;
48092;SDS011;33873;47.442;18.902;2022-10-30T04:35:24;9.55;;;5.72;;
48092;SDS011;33873;47.442;18.902;2022-10-30T04:40:32;6.95;;;4.37;;
48092;SDS011;33873;47.442;18.902;2022-10-30T04:43:01;5.55;;;4.37;;
48092;SDS011;33873;47.442;18.902;2022-10-30T04:45:32;8.48;;;7.07;;
48092;SDS011;33873;47.442;18.902;2022-10-30T04:48:18;9.30;;;5.53;;
48092;SDS011;33873;47.442;18.902;2022-10-30T04:50:46;8.68;;;6.12;;
48092;SDS011;33873;47.442;18.902;2022-10-30T04:53:15;5.68;;;4.82;;
48092;SDS011;33873;47.442;18.902;2022-10-30T04:55:44;9.52;;;5.12;;
48092;SDS011;33873;47.442;18.902;2022-10-30T04:58:12;17.27;;;6.57;;
48092;SDS011;33873;47.442;18.902;2022-10-30T05:00:41;5.50;;;4.20;;
48092;SDS011;33873;47.442;18.902;2022-10-30T05:03:19;6.95;;;4.55;;
48092;SDS011;33873;47.442;18.902;2022-10-30T05:05:55;7.10;;;4.90;;
48092;SDS011;33873;47.442;18.902;2022-10-30T05:08:24;7.65;;;4.95;;
48092;SDS011;33873;47.442;18.902;2022-10-30T05:10:52;7.47;;;4.37;;
48092;SDS011;33873;47.442;18.902;2022-10-30T05:13:20;7.75;;;4.95;;
48092;SDS011;33873;47.442;18.902;2022-10-30T05:15:47;8.23;;;4.82;;
48092;SDS011;33873;47.442;18.902;2022-10-30T05:18:15;12.52;;;6.82;;
48092;SDS011;33873;47.442;18.902;2022-10-30T05:20:45;6.20;;;5.03;;
48092;SDS011;33873;47.442;18.902;2022-10-30T05:23:13;8.02;;;5.55;;
48092;SDS011;33873;47.442;18.902;2022-10-30T05:25:40;7.53;;;5.62;;
48092;SDS011;33873;47.442;18.902;2022-10-30T05:28:09;6.70;;;4.50;;
48092;SDS011;33873;47.442;18.902;2022-10-30T05:30:37;9.00;;;4.53;;
48092;SDS011;33873;47.442;18.902;2022-10-30T05:33:06;6.57;;;4.40;;
48092;SDS011;33873;47.442;18.902;2022-10-30T05:35:35;13.70;;;5.72;;
48092;SDS011;33873;47.442;18.902;2022-10-30T05:38:05;8.38;;;5.55;;
48092;SDS011;33873;47.442;18.902;2022-10-30T05:40:33;7.05;;;3.45;;
48092;SDS011;33873;47.442;18.902;2022-10-30T05:43:01;8.75;;;5.50;;
48092;SDS011;33873;47.442;18.902;2022-10-30T05:45:29;7.50;;;6.20;;
48092;SDS011;33873;47.442;18.902;2022-10-30T05:47:59;12.85;;;3.67;;
48092;SDS011;33873;47.442;18.902;2022-10-30T05:50:29;8.88;;;4.03;;
48092;SDS011;33873;47.442;18.902;2022-10-30T05:53:08;6.47;;;4.10;;
48092;SDS011;33873;47.442;18.902;2022-10-30T05:55:37;12.18;;;6.15;;
48092;SDS011;33873;47.442;18.902;2022-10-30T05:58:05;11.45;;;5.82;;
48092;SDS011;33873;47.442;18.902;2022-10-30T06:00:34;6.62;;;4.78;;
48092;SDS011;33873;47.442;18.902;2022-10-30T06:03:04;8.07;;;5.32;;
48092;SDS011;33873;47.442;18.902;2022-10-30T06:05:33;5.43;;;3.65;;
48092;SDS011;33873;47.442;18.902;2022-10-30T06:08:02;7.25;;;4.25;;
48092;SDS011;33873;47.442;18.902;2022-10-30T06:10:31;8.55;;;4.70;;
48092;SDS011;33873;47.442;18.902;2022-10-30T06:13:01;6.22;;;4.37;;
48092;SDS011;33873;47.442;18.902;2022-10-30T06:15:30;10.63;;;6.47;;
48092;SDS011;33873;47.442;18.902;2022-10-30T06:17:58;12.30;;;6.78;;
48092;SDS011;33873;47.442;18.902;2022-10-30T06:20:29;14.18;;;7.20;;
48092;SDS011;33873;47.442;18.902;2022-10-30T06:25:33;22.10;;;5.30;;
48092;SDS011;33873;47.442;18.902;2022-10-30T06:30:36;9.88;;;6.07;;
48092;SDS011;33873;47.442;18.902;2022-10-30T06:33:05;14.27;;;6.12;;
48092;SDS011;33873;47.442;18.902;2022-10-30T06:35:34;5.35;;;3.72;;
48092;SDS011;33873;47.442;18.902;2022-10-30T06:38:01;12.15;;;6.28;;
48092;SDS011;33873;47.442;18.902;2022-10-30T06:40:29;8.05;;;5.95;;
48092;SDS011;33873;47.442;18.902;2022-10-30T06:42:57;11.52;;;5.50;;
48092;SDS011;33873;47.442;18.902;2022-10-30T06:45:26;9.00;;;4.85;;
48092;SDS011;33873;47.442;18.902;2022-10-30T06:47:53;9.50;;;5.25;;
48092;SDS011;33873;47.442;18.902;2022-10-30T06:50:21;10.32;;;6.30;;
48092;SDS011;33873;47.442;18.902;2022-10-30T06:52:50;6.60;;;4.05;;
48092;SDS011;33873;47.442;18.902;2022-10-30T06:55:18;12.48;;;8.35;;
48092;SDS011;33873;47.442;18.902;2022-10-30T06:57:51;6.10;;;4.68;;
48092;SDS011;33873;47.442;18.902;2022-10-30T07:00:20;15.30;;;5.47;;
48092;SDS011;33873;47.442;18.902;2022-10-30T07:02:59;13.32;;;7.47;;
48092;SDS011;33873;47.442;18.902;2022-10-30T07:05:29;17.60;;;6.70;;
48092;SDS011;33873;47.442;18.902;2022-10-30T07:07:56;9.25;;;6.53;;
48092;SDS011;33873;47.442;18.902;2022-10-30T07:10:24;7.75;;;4.87;;
48092;SDS011;33873;47.442;18.902;2022-10-30T07:12:54;17.67;;;6.53;;
48092;SDS011;33873;47.442;18.902;2022-10-30T07:15:27;13.57;;;6.47;;
48092;SDS011;33873;47.442;18.902;2022-10-30T07:17:58;11.63;;;6.45;;
48092;SDS011;33873;47.442;18.902;2022-10-30T07:20:29;13.00;;;6.75;;
48092;SDS011;33873;47.442;18.902;2022-10-30T07:22:58;12.27;;;6.78;;
48092;SDS011;33873;47.442;18.902;2022-10-30T07:25:26;13.20;;;7.70;;
48092;SDS011;33873;47.442;18.902;2022-10-30T07:27:54;11.05;;;7.15;;
48092;SDS011;33873;47.442;18.902;2022-10-30T07:30:24;11.85;;;4.68;;
48092;SDS011;33873;47.442;18.902;2022-10-30T07:33:02;15.63;;;7.25;;
48092;SDS011;33873;47.442;18.902;2022-10-30T07:35:31;11.45;;;7.62;;
48092;SDS011;33873;47.442;18.902;2022-10-30T07:38:01;8.20;;;4.43;;
48092;SDS011;33873;47.442;18.902;2022-10-30T07:40:31;15.05;;;7.25;;
48092;SDS011;33873;47.442;18.902;2022-10-30T07:43:00;11.38;;;6.40;;
48092;SDS011;33873;47.442;18.902;2022-10-30T07:45:30;12.80;;;8.18;;
48092;SDS011;33873;47.442;18.902;2022-10-30T07:47:59;11.77;;;6.60;;
48092;SDS011;33873;47.442;18.902;2022-10-30T07:50:27;21.15;;;7.55;;
48092;SDS011;33873;47.442;18.902;2022-10-30T07:52:55;12.73;;;6.47;;
48092;SDS011;33873;47.442;18.902;2022-10-30T07:55:23;13.27;;;7.00;;
48092;SDS011;33873;47.442;18.902;2022-10-30T07:57:52;9.82;;;6.03;;
48092;SDS011;33873;47.442;18.902;2022-10-30T08:00:21;15.50;;;6.85;;
48092;SDS011;33873;47.442;18.902;2022-10-30T08:02:50;14.25;;;4.85;;
48092;SDS011;33873;47.442;18.902;2022-10-30T08:05:18;10.77;;;6.25;;
48092;SDS011;33873;47.442;18.902;2022-10-30T08:07:46;12.02;;;7.28;;
48092;SDS011;33873;47.442;18.902;2022-10-30T08:10:14;23.05;;;7.00;;
48092;SDS011;33873;47.442;18.902;2022-10-30T08:12:42;11.43;;;8.10;;
48092;SDS011;33873;47.442;18.902;2022-10-30T08:15:11;11.02;;;6.15;;
48092;SDS011;33873;47.442;18.902;2022-10-30T08:17:40;12.63;;;6.45;;
48092;SDS011;33873;47.442;18.902;2022-10-30T08:20:09;12.00;;;7.50;;
48092;SDS011;33873;47.442;18.902;2022-10-30T08:22:48;12.85;;;5.60;;
48092;SDS011;33873;47.442;18.902;2022-10-30T08:25:18;14.80;;;9.00;;
48092;SDS011;33873;47.442;18.902;2022-10-30T08:27:57;10.93;;;7.45;;
48092;SDS011;33873;47.442;18.902;2022-10-30T08:30:27;12.23;;;6.62;;
48092;SDS011;33873;47.442;18.902;2022-10-30T08:33:00;14.50;;;8.02;;
48092;SDS011;33873;47.442;18.902;2022-10-30T08:35:30;11.13;;;5.67;;
48092;SDS011;33873;47.442;18.902;2022-10-30T08:37:59;13.25;;;7.45;;
48092;SDS011;33873;47.442;18.902;2022-10-30T08:40:29;13.35;;;7.00;;
48092;SDS011;33873;47.442;18.902;2022-10-30T08:42:57;8.25;;;5.75;;
48092;SDS011;33873;47.442;18.902;2022-10-30T08:45:25;8.27;;;6.45;;
48092;SDS011;33873;47.442;18.902;2022-10-30T08:47:58;8.32;;;5.55;;
48092;SDS011;33873;47.442;18.902;2022-10-30T08:50:28;9.63;;;6.57;;
48092;SDS011;33873;47.442;18.902;2022-10-30T08:52:59;12.82;;;8.00;;
48092;SDS011;33873;47.442;18.902;2022-10-30T08:55:29;10.73;;;7.03;;
48092;SDS011;33873;47.442;18.902;2022-10-30T08:57:59;12.30;;;7.75;;
48092;SDS011;33873;47.442;18.902;2022-10-30T09:00:27;15.27;;;8.82;;
48092;SDS011;33873;47.442;18.902;2022-10-30T09:02:56;8.13;;;5.45;;
48092;SDS011;33873;47.442;18.902;2022-10-30T09:05:27;13.57;;;7.28;;
48092;SDS011;33873;47.442;18.902;2022-10-30T09:07:58;16.15;;;8.75;;
48092;SDS011;33873;47.442;18.902;2022-10-30T09:10:32;14.98;;;7.97;;
48092;SDS011;33873;47.442;18.902;2022-10-30T09:13:00;9.88;;;6.53;;
48092;SDS011;33873;47.442;18.902;2022-10-30T09:15:30;10.30;;;6.28;;
48092;SDS011;33873;47.442;18.902;2022-10-30T09:18:01;14.00;;;6.78;;
48092;SDS011;33873;47.442;18.902;2022-10-30T09:20:30;14.87;;;8.30;;
48092;SDS011;33873;47.442;18.902;2022-10-30T09:22:58;13.55;;;6.47;;
48092;SDS011;33873;47.442;18.902;2022-10-30T09:25:26;15.00;;;9.07;;
48092;SDS011;33873;47.442;18.902;2022-10-30T09:27:55;15.13;;;9.00;;
48092;SDS011;33873;47.442;18.902;2022-10-30T09:30:22;10.75;;;6.82;;
48092;SDS011;33873;47.442;18.902;2022-10-30T09:32:57;11.02;;;6.78;;
48092;SDS011;33873;47.442;18.902;2022-10-30T09:35:28;11.20;;;6.78;;
48092;SDS011;33873;47.442;18.902;2022-10-30T09:37:57;10.63;;;6.50;;
48092;SDS011;33873;47.442;18.902;2022-10-30T09:43:14;11.15;;;5.97;;
48092;SDS011;33873;47.442;18.902;2022-10-30T09:54:49;11.32;;;6.15;;
48092;SDS011;33873;47.442;18.902;2022-10-30T10:02:37;13.38;;;5.82;;
48092;SDS011;33873;47.442;18.902;2022-10-30T10:05:28;12.80;;;7.30;;
48092;SDS011;33873;47.442;18.902;2022-10-30T10:08:07;13.50;;;8.23;;
48092;SDS011;33873;47.442;18.902;2022-10-30T10:10:39;11.90;;;6.07;;
48092;SDS011;33873;47.442;18.902;2022-10-30T10:13:22;11.68;;;7.62;;
48092;SDS011;33873;47.442;18.902;2022-10-30T10:18:42;9.50;;;7.03;;
48092;SDS011;33873;47.442;18.902;2022-10-30T10:21:14;13.88;;;6.90;;
48092;SDS011;33873;47.442;18.902;2022-10-30T10:23:49;9.48;;;6.03;;
48092;SDS011;33873;47.442;18.902;2022-10-30T10:26:28;14.63;;;6.37;;
48092;SDS011;33873;47.442;18.902;2022-10-30T10:29:05;9.60;;;4.95;;
48092;SDS011;33873;47.442;18.902;2022-10-30T10:45:26;11.02;;;4.80;;
48092;SDS011;33873;47.442;18.902;2022-10-30T10:50:54;19.30;;;7.22;;
48092;SDS011;33873;47.442;18.902;2022-10-30T10:53:26;12.23;;;7.15;;
48092;SDS011;33873;47.442;18.902;2022-10-30T10:56:15;8.30;;;6.10;;
48092;SDS011;33873;47.442;18.902;2022-10-30T10:58:50;7.10;;;5.37;;
48092;SDS011;33873;47.442;18.902;2022-10-30T11:04:39;12.90;;;7.72;;
48092;SDS011;33873;47.442;18.902;2022-10-30T11:09:50;15.40;;;7.80;;
48092;SDS011;33873;47.442;18.902;2022-10-30T11:12:19;11.75;;;8.10;;
48092;SDS011;33873;47.442;18.902;2022-10-30T11:14:49;10.68;;;7.30;;
48092;SDS011;33873;47.442;18.902;2022-10-30T11:19:59;12.98;;;6.72;;
48092;SDS011;33873;47.442;18.902;2022-10-30T11:22:30;10.50;;;5.37;;
48092;SDS011;33873;47.442;18.902;2022-10-30T11:25:19;29.83;;;7.43;;
48092;SDS011;33873;47.442;18.902;2022-10-30T11:27:56;11.45;;;6.72;;
48092;SDS011;33873;47.442;18.902;2022-10-30T11:30:25;17.48;;;8.15;;
48092;SDS011;33873;47.442;18.902;2022-10-30T11:32:55;11.45;;;6.07;;
48092;SDS011;33873;47.442;18.902;2022-10-30T11:35:24;14.30;;;8.30;;
48092;SDS011;33873;47.442;18.902;2022-10-30T11:38:10;12.00;;;8.38;;
48092;SDS011;33873;47.442;18.902;2022-10-30T11:40:43;15.20;;;7.37;;
48092;SDS011;33873;47.442;18.902;2022-10-30T11:43:14;10.07;;;5.70;;
48092;SDS011;33873;47.442;18.902;2022-10-30T11:45:46;16.33;;;8.98;;
48092;SDS011;33873;47.442;18.902;2022-10-30T11:48:18;13.60;;;6.70;;
48092;SDS011;33873;47.442;18.902;2022-10-30T11:50:55;13.27;;;7.72;;
48092;SDS011;33873;47.442;18.902;2022-10-30T11:53:29;15.90;;;9.73;;
48092;SDS011;33873;47.442;18.902;2022-10-30T11:56:01;10.27;;;5.72;;
48092;SDS011;33873;47.442;18.902;2022-10-30T12:01:07;22.00;;;7.47;;
48092;SDS011;33873;47.442;18.902;2022-10-30T12:03:52;11.18;;;5.70;;
48092;SDS011;33873;47.442;18.902;2022-10-30T12:11:33;11.23;;;8.38;;
48092;SDS011;33873;47.442;18.902;2022-10-30T12:14:02;14.25;;;8.02;;
48092;SDS011;33873;47.442;18.902;2022-10-30T12:16:30;12.07;;;8.68;;
48092;SDS011;33873;47.442;18.902;2022-10-30T12:19:02;18.27;;;7.25;;
48092;SDS011;33873;47.442;18.902;2022-10-30T12:21:36;11.18;;;6.50;;
48092;SDS011;33873;47.442;18.902;2022-10-30T12:24:06;10.75;;;5.22;;
48092;SDS011;33873;47.442;18.902;2022-10-30T12:26:48;12.55;;;7.80;;
48092;SDS011;33873;47.442;18.902;2022-10-30T12:29:18;13.18;;;7.30;;
48092;SDS011;33873;47.442;18.902;2022-10-30T12:31:57;9.27;;;5.18;;
48092;SDS011;33873;47.442;18.902;2022-10-30T12:34:34;13.62;;;6.22;;
48092;SDS011;33873;47.442;18.902;2022-10-30T12:37:17;10.48;;;5.60;;
48092;SDS011;33873;47.442;18.902;2022-10-30T12:42:28;11.98;;;5.60;;
48092;SDS011;33873;47.442;18.902;2022-10-30T12:45:08;8.45;;;5.45;;
48092;SDS011;33873;47.442;18.902;2022-10-30T12:55:26;11.50;;;5.78;;
48092;SDS011;33873;47.442;18.902;2022-10-30T12:58:02;11.93;;;7.78;;
48092;SDS011;33873;47.442;18.902;2022-10-30T13:00:37;14.98;;;8.52;;
48092;SDS011;33873;47.442;18.902;2022-10-30T13:03:17;8.70;;;5.78;;
48092;SDS011;33873;47.442;18.902;2022-10-30T13:05:49;9.55;;;6.60;;
48092;SDS011;33873;47.442;18.902;2022-10-30T13:11:15;20.85;;;8.73;;
48092;SDS011;33873;47.442;18.902;2022-10-30T13:13:49;8.55;;;6.07;;
48092;SDS011;33873;47.442;18.902;2022-10-30T13:16:20;15.88;;;7.10;;
48092;SDS011;33873;47.442;18.902;2022-10-30T13:18:53;13.15;;;7.70;;
48092;SDS011;33873;47.442;18.902;2022-10-30T13:24:08;15.30;;;8.45;;
48092;SDS011;33873;47.442;18.902;2022-10-30T13:26:50;6.82;;;4.50;;
48092;SDS011;33873;47.442;18.902;2022-10-30T13:35:05;13.95;;;6.50;;
48092;SDS011;33873;47.442;18.902;2022-10-30T13:37:38;8.90;;;6.37;;
48092;SDS011;33873;47.442;18.902;2022-10-30T13:40:16;10.75;;;7.18;;
48092;SDS011;33873;47.442;18.902;2022-10-30T13:51:16;12.23;;;7.93;;
48092;SDS011;33873;47.442;18.902;2022-10-30T13:53:48;18.40;;;6.68;;
48092;SDS011;33873;47.442;18.902;2022-10-30T13:56:26;9.25;;;6.45;;
48092;SDS011;33873;47.442;18.902;2022-10-30T14:01:58;9.93;;;7.25;;
48092;SDS011;33873;47.442;18.902;2022-10-30T14:10:57;14.48;;;8.10;;
48092;SDS011;33873;47.442;18.902;2022-10-30T14:13:28;16.98;;;10.48;;
48092;SDS011;33873;47.442;18.902;2022-10-30T14:19:19;7.70;;;5.87;;
48092;SDS011;33873;47.442;18.902;2022-10-30T14:21:53;9.40;;;5.93;;
48092;SDS011;33873;47.442;18.902;2022-10-30T14:24:29;10.02;;;5.93;;
48092;SDS011;33873;47.442;18.902;2022-10-30T14:32:33;8.05;;;5.50;;
48092;SDS011;33873;47.442;18.902;2022-10-30T14:37:17;11.12;;;6.60;;
48092;SDS011;33873;47.442;18.902;2022-10-30T14:42:57;7.62;;;4.85;;
48092;SDS011;33873;47.442;18.902;2022-10-30T14:51:40;10.40;;;7.10;;
48092;SDS011;33873;47.442;18.902;2022-10-30T14:54:21;7.72;;;5.35;;
48092;SDS011;33873;47.442;18.902;2022-10-30T14:56:59;6.47;;;5.03;;
48092;SDS011;33873;47.442;18.902;2022-10-30T14:59:30;12.20;;;7.25;;
48092;SDS011;33873;47.442;18.902;2022-10-30T15:07:14;9.15;;;6.93;;
48092;SDS011;33873;47.442;18.902;2022-10-30T15:12:51;10.23;;;6.65;;
48092;SDS011;33873;47.442;18.902;2022-10-30T15:15:24;14.85;;;8.77;;
48092;SDS011;33873;47.442;18.902;2022-10-30T15:17:53;8.45;;;4.82;;
48092;SDS011;33873;47.442;18.902;2022-10-30T15:20:23;13.95;;;7.37;;
48092;SDS011;33873;47.442;18.902;2022-10-30T15:22:56;11.57;;;7.25;;
48092;SDS011;33873;47.442;18.902;2022-10-30T15:25:36;16.73;;;6.97;;
48092;SDS011;33873;47.442;18.902;2022-10-30T15:28:11;7.80;;;4.80;;
48092;SDS011;33873;47.442;18.902;2022-10-30T15:30:56;13.68;;;6.05;;
48092;SDS011;33873;47.442;18.902;2022-10-30T15:33:28;12.25;;;6.80;;
48092;SDS011;33873;47.442;18.902;2022-10-30T15:36:01;11.10;;;7.10;;
48092;SDS011;33873;47.442;18.902;2022-10-30T15:38:29;10.80;;;7.18;;
48092;SDS011;33873;47.442;18.902;2022-10-30T15:41:00;12.25;;;7.22;;
48092;SDS011;33873;47.442;18.902;2022-10-30T15:43:30;14.20;;;8.25;;
48092;SDS011;33873;47.442;18.902;2022-10-30T15:46:00;11.05;;;6.93;;
48092;SDS011;33873;47.442;18.902;2022-10-30T15:48:31;13.75;;;8.10;;
48092;SDS011;33873;47.442;18.902;2022-10-30T15:51:14;10.88;;;6.43;;
48092;SDS011;33873;47.442;18.902;2022-10-30T15:53:53;14.93;;;6.95;;
48092;SDS011;33873;47.442;18.902;2022-10-30T15:56:30;8.80;;;5.70;;
48092;SDS011;33873;47.442;18.902;2022-10-30T15:59:03;10.50;;;6.53;;
48092;SDS011;33873;47.442;18.902;2022-10-30T16:01:39;11.88;;;7.60;;
48092;SDS011;33873;47.442;18.902;2022-10-30T16:04:17;15.57;;;8.35;;
48092;SDS011;33873;47.442;18.902;2022-10-30T16:09:18;9.38;;;6.80;;
48092;SDS011;33873;47.442;18.902;2022-10-30T16:11:46;10.13;;;6.32;;
48092;SDS011;33873;47.442;18.902;2022-10-30T16:14:16;11.30;;;5.82;;
48092;SDS011;33873;47.442;18.902;2022-10-30T16:16:47;14.27;;;6.70;;
48092;SDS011;33873;47.442;18.902;2022-10-30T16:19:19;6.97;;;5.37;;
48092;SDS011;33873;47.442;18.902;2022-10-30T16:21:56;9.75;;;6.57;;
48092;SDS011;33873;47.442;18.902;2022-10-30T16:24:25;14.45;;;7.00;;
48092;SDS011;33873;47.442;18.902;2022-10-30T16:27:01;9.07;;;6.40;;
48092;SDS011;33873;47.442;18.902;2022-10-30T16:29:48;8.77;;;4.75;;
48092;SDS011;33873;47.442;18.902;2022-10-30T16:32:18;9.40;;;6.35;;
48092;SDS011;33873;47.442;18.902;2022-10-30T16:34:47;13.52;;;7.50;;
48092;SDS011;33873;47.442;18.902;2022-10-30T16:37:17;13.48;;;6.93;;
48092;SDS011;33873;47.442;18.902;2022-10-30T16:39:47;14.35;;;9.07;;
48092;SDS011;33873;47.442;18.902;2022-10-30T16:42:19;15.70;;;10.35;;
48092;SDS011;33873;47.442;18.902;2022-10-30T16:44:48;15.70;;;9.82;;
48092;SDS011;33873;47.442;18.902;2022-10-30T16:50:01;21.62;;;10.13;;
48092;SDS011;33873;47.442;18.902;2022-10-30T16:52:32;14.20;;;7.20;;
48092;SDS011;33873;47.442;18.902;2022-10-30T16:55:05;10.68;;;8.15;;
48092;SDS011;33873;47.442;18.902;2022-10-30T16:57:36;12.73;;;6.95;;
48092;SDS011;33873;47.442;18.902;2022-10-30T17:00:19;9.32;;;7.25;;
48092;SDS011;33873;47.442;18.902;2022-10-30T17:02:54;11.73;;;7.57;;
48092;SDS011;33873;47.442;18.902;2022-10-30T17:05:27;16.75;;;8.27;;
48092;SDS011;33873;47.442;18.902;2022-10-30T17:07:57;21.87;;;8.82;;
48092;SDS011;33873;47.442;18.902;2022-10-30T17:15:57;13.95;;;9.25;;
48092;SDS011;33873;47.442;18.902;2022-10-30T17:18:27;14.60;;;8.30;;
48092;SDS011;33873;47.442;18.902;2022-10-30T17:21:05;13.48;;;6.37;;
48092;SDS011;33873;47.442;18.902;2022-10-30T17:23:35;11.57;;;7.35;;
48092;SDS011;33873;47.442;18.902;2022-10-30T17:26:07;16.62;;;9.70;;
48092;SDS011;33873;47.442;18.902;2022-10-30T17:28:36;12.48;;;9.07;;